Time;durP1;ratioP1;P1;durP2;ratioP2;P2;SDS_P1;SDS_P2;PMS_P1;PMS_P2;Temp;Humidity;BMP_temperature;BMP_pressure;BME280_temperature;BME280_humidity;BME280_pressure;Samples;Min_cycle;Max_cycle;Signal;HPM_P1;HPM_P2
2021/09/25 00:00:43;;;;;;;18.77;4.77;;;10.00;99.90;;;;;;4853397;29;20201;-92
2021/09/25 00:03:09;;;;;;;22.47;5.17;;;10.00;99.90;;;;;;4884325;29;20690;-91
2021/09/25 00:05:37;;;;;;;25.37;4.90;;;10.00;99.90;;;;;;4884006;29;20244;-91
2021/09/25 00:08:04;;;;;;;17.83;4.30;;;10.00;99.90;;;;;;4884018;29;20543;-91
2021/09/25 00:10:30;;;;;;;15.80;5.70;;;10.00;99.90;;;;;;4901032;29;20654;-90
2021/09/25 00:12:57;;;;;;;21.40;4.57;;;9.90;99.90;;;;;;4885720;29;20225;-90
2021/09/25 00:15:23;;;;;;;19.20;4.60;;;9.90;99.90;;;;;;4886077;29;20686;-90
2021/09/25 00:17:49;;;;;;;16.23;4.20;;;9.90;99.90;;;;;;4884737;29;20204;-91
2021/09/25 00:20:18;;;;;;;27.07;4.73;;;9.90;99.90;;;;;;4884029;29;20185;-91
2021/09/25 00:22:44;;;;;;;19.70;4.60;;;9.90;99.90;;;;;;4901305;29;20246;-91
2021/09/25 00:25:10;;;;;;;14.57;3.93;;;9.90;99.90;;;;;;4900321;29;20201;-92
2021/09/25 00:27:37;;;;;;;21.47;4.23;;;9.90;99.90;;;;;;4868944;29;20192;-91
2021/09/25 00:30:06;;;;;;;21.80;4.47;;;9.80;99.90;;;;;;4868503;29;20558;-91
2021/09/25 00:32:32;;;;;;;13.70;4.33;;;9.80;99.90;;;;;;4884107;29;20185;-91
2021/09/25 00:34:58;;;;;;;16.20;4.17;;;9.80;99.90;;;;;;4868130;29;20297;-93
2021/09/25 00:37:24;;;;;;;22.63;4.40;;;9.80;99.90;;;;;;4884017;29;20190;-92
2021/09/25 00:39:49;;;;;;;17.10;4.50;;;9.70;99.90;;;;;;4868538;29;20208;-91
2021/09/25 00:42:15;;;;;;;20.10;5.17;;;9.70;99.90;;;;;;4883613;29;20245;-91
2021/09/25 00:44:41;;;;;;;16.73;4.53;;;9.60;99.90;;;;;;4884111;29;20244;-91
2021/09/25 00:47:07;;;;;;;14.00;4.27;;;9.60;99.90;;;;;;4868141;29;20237;-92
2021/09/25 00:49:33;;;;;;;21.53;4.60;;;9.60;99.90;;;;;;4867905;29;20189;-92
2021/09/25 00:51:59;;;;;;;19.77;5.27;;;9.50;99.90;;;;;;4883430;29;20276;-90
2021/09/25 00:54:24;;;;;;;22.87;5.13;;;9.50;99.90;;;;;;4852543;29;20256;-91
2021/09/25 00:56:50;;;;;;;17.07;4.47;;;9.40;99.90;;;;;;4883308;29;20197;-91
2021/09/25 00:59:18;;;;;;;16.37;4.63;;;9.40;99.90;;;;;;4867695;29;20631;-91
2021/09/25 01:01:45;;;;;;;14.40;3.97;;;9.40;99.90;;;;;;4888956;29;20232;-91
2021/09/25 01:04:12;;;;;;;19.87;4.67;;;9.40;99.90;;;;;;4887714;29;20268;-91
2021/09/25 01:06:38;;;;;;;23.03;4.90;;;9.30;99.90;;;;;;4911297;29;20195;-91
2021/09/25 01:09:05;;;;;;;23.53;4.67;;;9.30;99.90;;;;;;4869954;29;20193;-92
2021/09/25 01:11:33;;;;;;;18.20;5.20;;;9.20;99.90;;;;;;4892103;29;20185;-91
2021/09/25 01:13:59;;;;;;;18.17;5.13;;;9.20;99.90;;;;;;4907893;29;20284;-92
2021/09/25 01:16:25;;;;;;;21.90;5.53;;;9.20;99.90;;;;;;4875063;29;20325;-92
2021/09/25 01:18:51;;;;;;;13.97;4.30;;;9.20;99.90;;;;;;4908199;29;20177;-92
2021/09/25 01:21:18;;;;;;;28.40;4.70;;;9.20;99.90;;;;;;4909230;29;20189;-92
2021/09/25 01:23:44;;;;;;;21.93;4.67;;;9.20;99.90;;;;;;4896438;29;20187;-91
2021/09/25 01:26:10;;;;;;;16.47;4.60;;;9.20;99.90;;;;;;4901490;29;20228;-92
2021/09/25 01:28:38;;;;;;;29.40;5.60;;;9.20;99.90;;;;;;4902497;29;20176;-92
2021/09/25 01:31:06;;;;;;;19.60;5.30;;;9.20;99.90;;;;;;4902800;29;20564;-90
2021/09/25 01:33:47;;;;;;;18.97;5.57;;;9.30;99.90;;;;;;4903044;29;20216;-93
2021/09/25 01:36:14;;;;;;;27.07;5.67;;;9.30;99.90;;;;;;4923912;29;20161;-91
2021/09/25 01:38:41;;;;;;;22.43;4.73;;;9.30;99.90;;;;;;4921926;29;20199;-94
2021/09/25 01:41:07;;;;;;;18.87;4.33;;;9.30;99.90;;;;;;4887876;29;20219;-92
2021/09/25 01:43:33;;;;;;;15.97;5.23;;;9.30;99.90;;;;;;4901559;29;20212;-91
2021/09/25 01:46:00;;;;;;;27.27;5.10;;;9.40;99.90;;;;;;4886138;29;20613;-92
2021/09/25 01:48:25;;;;;;;22.37;5.53;;;9.40;99.90;;;;;;4901994;29;20212;-93
2021/09/25 01:50:52;;;;;;;18.63;5.00;;;9.40;99.90;;;;;;4885871;29;20212;-90
2021/09/25 01:53:21;;;;;;;26.37;5.47;;;9.40;99.90;;;;;;4886136;29;20299;-93
2021/09/25 01:55:47;;;;;;;17.97;5.30;;;9.40;99.90;;;;;;4918972;29;20201;-93
2021/09/25 01:58:13;;;;;;;28.93;6.93;;;9.50;99.90;;;;;;4901688;29;20177;-94
2021/09/25 02:00:39;;;;;;;16.87;4.90;;;9.50;99.90;;;;;;4885757;29;20550;-92
2021/09/25 02:03:09;;;;;;;17.37;4.57;;;9.50;99.90;;;;;;4885689;29;20290;-92
2021/09/25 02:05:35;;;;;;;20.60;5.13;;;9.60;99.90;;;;;;4918045;29;20196;-92
2021/09/25 02:08:03;;;;;;;16.77;4.63;;;9.60;99.90;;;;;;4901684;29;20181;-94
2021/09/25 02:10:28;;;;;;;23.77;5.00;;;9.70;99.90;;;;;;4918173;29;20184;-92
2021/09/25 02:12:54;;;;;;;19.97;5.47;;;9.70;99.90;;;;;;4886326;29;20204;-93
2021/09/25 02:15:20;;;;;;;18.60;5.13;;;9.70;99.90;;;;;;4901493;29;20193;-92
2021/09/25 02:17:45;;;;;;;18.40;5.53;;;9.80;99.90;;;;;;4902809;29;20180;-92
2021/09/25 02:20:12;;;;;;;22.43;5.37;;;9.80;99.90;;;;;;4901475;29;20187;-92
2021/09/25 02:22:39;;;;;;;17.30;5.20;;;9.90;99.90;;;;;;4918456;29;20180;-92
2021/09/25 02:25:08;;;;;;;16.90;5.13;;;9.90;99.90;;;;;;4887503;29;20188;-93
2021/09/25 02:27:39;;;;;;;23.53;5.63;;;10.00;99.90;;;;;;4901285;29;20185;-93
2021/09/25 02:30:10;;;;;;;18.60;5.47;;;10.10;99.90;;;;;;4886664;29;20207;-93
2021/09/25 02:32:36;;;;;;;19.23;5.50;;;10.10;99.90;;;;;;4901224;29;20244;-92
2021/09/25 02:35:02;;;;;;;17.73;5.20;;;10.10;99.90;;;;;;4885427;29;20216;-94
2021/09/25 02:37:28;;;;;;;22.30;6.53;;;10.20;99.90;;;;;;4900828;29;20199;-93
2021/09/25 02:39:54;;;;;;;24.33;5.63;;;10.20;99.90;;;;;;4900644;29;20188;-93
2021/09/25 02:42:19;;;;;;;20.73;4.90;;;10.20;99.90;;;;;;4900610;29;20193;-92
2021/09/25 02:44:45;;;;;;;13.20;5.40;;;10.30;99.90;;;;;;4916761;29;20192;-93
2021/09/25 02:47:10;;;;;;;19.37;5.00;;;10.30;99.90;;;;;;4901159;29;20181;-93
2021/09/25 02:49:36;;;;;;;14.50;5.50;;;10.40;99.90;;;;;;4885131;29;20199;-93
2021/09/25 02:52:02;;;;;;;13.70;5.47;;;10.50;99.90;;;;;;4901245;29;20180;-93
2021/09/25 02:54:28;;;;;;;17.87;5.13;;;10.50;99.90;;;;;;4917923;29;20252;-94
2021/09/25 02:56:54;;;;;;;18.93;5.13;;;10.50;99.90;;;;;;4885623;29;20228;-93
2021/09/25 02:59:19;;;;;;;21.03;5.70;;;10.50;99.90;;;;;;4900868;29;20642;-94
2021/09/25 03:01:45;;;;;;;20.40;6.10;;;10.50;99.90;;;;;;4897881;29;20240;-95
2021/09/25 03:04:11;;;;;;;20.70;5.73;;;10.50;99.90;;;;;;4897910;29;20237;-92
2021/09/25 03:06:37;;;;;;;18.90;5.38;;;10.60;99.90;;;;;;4898090;29;20716;-96
2021/09/25 03:09:03;;;;;;;18.53;6.23;;;10.50;99.90;;;;;;4899008;29;20264;-94
2021/09/25 03:11:28;;;;;;;17.20;5.33;;;10.60;99.90;;;;;;4897211;29;20220;-90
2021/09/25 03:13:54;;;;;;;19.83;5.63;;;10.50;99.90;;;;;;4898399;29;20217;-91
2021/09/25 03:16:20;;;;;;;16.77;5.43;;;10.60;99.90;;;;;;4896345;29;20250;-91
2021/09/25 03:18:45;;;;;;;21.53;5.67;;;10.60;99.90;;;;;;4897326;29;20185;-90
2021/09/25 03:21:13;;;;;;;13.53;5.57;;;10.70;99.90;;;;;;4897040;29;20186;-93
2021/09/25 03:23:39;;;;;;;14.17;5.23;;;10.70;99.90;;;;;;4881613;29;20253;-91
2021/09/25 03:26:04;;;;;;;14.25;5.43;;;10.70;99.90;;;;;;4895490;29;20193;-93
2021/09/25 03:28:30;;;;;;;18.50;6.27;;;10.70;99.90;;;;;;4899429;29;20268;-95
2021/09/25 03:30:56;;;;;;;16.73;6.10;;;10.70;99.90;;;;;;4908042;29;20185;-93
2021/09/25 03:33:21;;;;;;;24.63;6.55;;;10.70;99.90;;;;;;4889391;29;20218;-92
2021/09/25 03:35:47;;;;;;;24.77;6.75;;;10.80;99.90;;;;;;4877660;29;20209;-92
2021/09/25 03:38:21;;;;;;;20.43;6.10;;;10.70;99.90;;;;;;4865861;29;20553;-91
2021/09/25 03:40:49;;;;;;;18.20;6.67;;;10.70;99.90;;;;;;4897519;29;20177;-91
2021/09/25 03:43:16;;;;;;;19.23;6.07;;;10.80;99.90;;;;;;4886126;29;20635;-92
2021/09/25 03:45:41;;;;;;;15.70;6.70;;;10.80;99.90;;;;;;4895033;29;20219;-91
2021/09/25 03:48:07;;;;;;;18.60;5.77;;;10.80;99.90;;;;;;4881143;29;20213;-90
2021/09/25 03:50:34;;;;;;;18.93;5.70;;;10.80;99.90;;;;;;4874208;29;20281;-91
2021/09/25 03:53:00;;;;;;;20.93;6.20;;;10.90;99.90;;;;;;4890423;29;20186;-93
2021/09/25 03:55:26;;;;;;;19.92;6.30;;;10.90;99.90;;;;;;4882768;29;20217;-92
2021/09/25 03:57:53;;;;;;;15.53;6.07;;;10.90;99.90;;;;;;4869071;29;20666;-92
2021/09/25 04:00:19;;;;;;;19.13;6.07;;;11.00;99.90;;;;;;4901791;29;20174;-92
2021/09/25 04:02:45;;;;;;;27.58;6.53;;;10.90;99.90;;;;;;4901288;29;20245;-93
2021/09/25 04:05:11;;;;;;;17.83;5.90;;;11.00;99.90;;;;;;4869672;29;20185;-94
2021/09/25 04:07:36;;;;;;;18.00;6.13;;;11.00;99.90;;;;;;4884988;29;20189;-92
2021/09/25 04:10:03;;;;;;;22.10;7.18;;;10.90;99.90;;;;;;4869462;29;20544;-92
2021/09/25 04:12:29;;;;;;;18.58;6.53;;;11.00;99.90;;;;;;4885056;29;20187;-93
2021/09/25 04:14:54;;;;;;;16.65;5.57;;;11.00;99.90;;;;;;4901574;29;20224;-94
2021/09/25 04:17:20;;;;;;;21.47;5.97;;;10.90;99.90;;;;;;4885055;29;20186;-93
2021/09/25 04:19:46;;;;;;;16.03;6.30;;;10.90;99.90;;;;;;4869534;29;20276;-94
2021/09/25 04:22:11;;;;;;;19.40;5.70;;;11.00;99.90;;;;;;4885117;29;20181;-93
2021/09/25 04:24:37;;;;;;;16.58;6.57;;;11.00;99.90;;;;;;4901058;29;20190;-93
2021/09/25 04:27:03;;;;;;;17.00;6.45;;;11.00;99.90;;;;;;4884580;29;20639;-92
2021/09/25 04:29:28;;;;;;;18.20;6.38;;;11.00;99.90;;;;;;4883993;29;20246;-92
2021/09/25 04:31:54;;;;;;;10.83;5.80;;;11.00;99.90;;;;;;4884265;29;20193;-92
2021/09/25 04:34:20;;;;;;;17.08;6.10;;;10.90;99.90;;;;;;4868657;29;20213;-92
2021/09/25 04:36:45;;;;;;;15.48;6.30;;;10.90;99.90;;;;;;4884076;29;20204;-93
2021/09/25 04:39:11;;;;;;;16.23;6.18;;;10.90;99.90;;;;;;4853486;29;20186;-93
2021/09/25 04:41:37;;;;;;;18.48;6.15;;;11.00;99.90;;;;;;4883906;29;20627;-92
2021/09/25 04:44:03;;;;;;;20.07;7.07;;;11.00;99.90;;;;;;4868434;29;20280;-92
2021/09/25 04:46:28;;;;;;;16.20;6.47;;;11.00;99.90;;;;;;4884131;29;20223;-92
2021/09/25 04:48:54;;;;;;;17.55;7.03;;;11.00;99.90;;;;;;4900806;29;20213;-93
2021/09/25 04:51:20;;;;;;;15.18;6.60;;;11.00;99.90;;;;;;4868462;29;20228;-92
2021/09/25 04:53:46;;;;;;;14.17;6.43;;;11.00;99.90;;;;;;4852521;29;20217;-92
2021/09/25 04:56:12;;;;;;;24.15;7.30;;;11.00;99.90;;;;;;4883930;29;20197;-93
2021/09/25 04:58:38;;;;;;;16.23;6.15;;;11.00;99.90;;;;;;4899979;29;20177;-93
2021/09/25 05:01:07;;;;;;;24.90;7.57;;;11.00;99.90;;;;;;4883601;29;20184;-91
2021/09/25 05:03:33;;;;;;;14.67;5.60;;;11.10;99.90;;;;;;4867823;29;20193;-92
2021/09/25 05:06:00;;;;;;;19.87;6.37;;;11.10;99.90;;;;;;4868593;29;20209;-91
2021/09/25 05:08:26;;;;;;;15.83;6.73;;;11.10;99.90;;;;;;4883384;29;20268;-91
2021/09/25 05:10:52;;;;;;;16.90;6.53;;;11.10;99.90;;;;;;4867702;29;20217;-92
2021/09/25 05:13:18;;;;;;;19.30;6.22;;;11.10;99.90;;;;;;4882835;29;20277;-91
2021/09/25 05:15:43;;;;;;;16.30;7.40;;;11.20;99.90;;;;;;4866858;29;20189;-91
2021/09/25 05:18:09;;;;;;;17.00;6.55;;;11.20;99.90;;;;;;4898405;29;20216;-92
2021/09/25 05:20:34;;;;;;;19.00;6.87;;;11.20;99.90;;;;;;4882282;29;20553;-91
2021/09/25 05:23:00;;;;;;;14.77;6.60;;;11.30;99.90;;;;;;4866352;29;20213;-92
2021/09/25 05:25:26;;;;;;;17.73;6.28;;;11.30;99.90;;;;;;4897390;29;20189;-91
2021/09/25 05:27:51;;;;;;;18.53;7.67;;;11.30;99.90;;;;;;4851553;29;20189;-91
2021/09/25 05:30:17;;;;;;;15.38;7.00;;;11.30;99.90;;;;;;4866745;29;20193;-91
2021/09/25 05:32:43;;;;;;;13.77;6.70;;;11.40;99.90;;;;;;4883115;29;20211;-90
2021/09/25 05:35:09;;;;;;;21.70;6.90;;;11.40;99.90;;;;;;4881980;29;20213;-91
2021/09/25 05:37:35;;;;;;;17.27;6.70;;;11.50;99.90;;;;;;4886199;29;20647;-91
2021/09/25 05:40:01;;;;;;;22.63;7.23;;;11.60;99.90;;;;;;4867386;29;20192;-91
2021/09/25 05:42:28;;;;;;;14.57;6.55;;;11.60;99.90;;;;;;4882975;29;20559;-93
2021/09/25 05:44:54;;;;;;;21.23;7.43;;;11.60;99.90;;;;;;4883553;29;20276;-91
2021/09/25 05:47:21;;;;;;;15.43;7.43;;;11.70;99.90;;;;;;4882756;29;20190;-91
2021/09/25 05:49:47;;;;;;;12.07;6.80;;;11.80;99.90;;;;;;4913866;29;20634;-90
2021/09/25 05:52:15;;;;;;;15.77;6.75;;;11.80;99.90;;;;;;4867124;29;20185;-88
2021/09/25 05:54:41;;;;;;;14.85;6.93;;;11.90;99.90;;;;;;4882146;29;20213;-90
2021/09/25 05:57:08;;;;;;;11.93;6.40;;;11.90;99.90;;;;;;4882362;29;20635;-90
2021/09/25 05:59:33;;;;;;;14.55;7.00;;;12.00;99.90;;;;;;4898789;29;20276;-89
2021/09/25 06:02:00;;;;;;;13.65;7.22;;;12.10;99.90;;;;;;4850415;29;20774;-89
2021/09/25 06:04:25;;;;;;;24.08;7.03;;;12.10;99.90;;;;;;4887349;29;20192;-89
2021/09/25 06:06:51;;;;;;;16.40;6.50;;;12.20;99.90;;;;;;4874622;29;20185;-91
2021/09/25 06:09:17;;;;;;;12.00;6.53;;;12.20;99.90;;;;;;4882922;29;20236;-91
2021/09/25 06:11:43;;;;;;;12.43;6.32;;;12.20;99.90;;;;;;4882438;29;20181;-90
2021/09/25 06:14:08;;;;;;;17.17;6.25;;;12.30;99.90;;;;;;4867526;29;20197;-90
2021/09/25 06:16:34;;;;;;;16.75;6.93;;;12.30;99.90;;;;;;4882108;29;20185;-91
2021/09/25 06:19:00;;;;;;;15.80;5.88;;;12.30;99.90;;;;;;4881649;29;20635;-89
2021/09/25 06:21:25;;;;;;;18.08;7.68;;;12.40;99.90;;;;;;4882391;29;20260;-90
2021/09/25 06:23:51;;;;;;;16.02;7.07;;;12.40;99.90;;;;;;4884035;29;20702;-91
2021/09/25 06:26:17;;;;;;;13.77;6.35;;;12.50;99.90;;;;;;4882811;29;20579;-90
2021/09/25 06:28:46;;;;;;;16.27;7.38;;;12.50;99.90;;;;;;4881240;29;20186;-93
2021/09/25 06:31:15;;;;;;;12.45;6.53;;;12.60;99.90;;;;;;4881938;29;20182;-91
2021/09/25 06:33:42;;;;;;;13.43;7.38;;;12.60;99.90;;;;;;4866795;29;20219;-90
2021/09/25 06:36:08;;;;;;;17.38;7.22;;;12.70;99.90;;;;;;4882842;29;20201;-92
2021/09/25 06:38:33;;;;;;;22.63;6.90;;;12.70;99.90;;;;;;4899510;29;20234;-93
2021/09/25 06:40:59;;;;;;;16.17;7.10;;;12.90;99.90;;;;;;4898814;29;20181;-91
2021/09/25 06:43:25;;;;;;;17.23;7.28;;;12.90;99.90;;;;;;4850842;29;20197;-91
2021/09/25 06:45:50;;;;;;;19.13;7.80;;;12.90;99.90;;;;;;4898868;29;20188;-92
2021/09/25 06:48:16;;;;;;;17.60;6.60;;;13.00;99.90;;;;;;4882845;29;20604;-92
2021/09/25 06:50:41;;;;;;;14.40;7.35;;;13.10;99.90;;;;;;4898486;29;20192;-92
2021/09/25 06:53:07;;;;;;;13.93;7.45;;;13.10;99.90;;;;;;4869777;29;20193;-91
2021/09/25 06:55:33;;;;;;;19.60;7.63;;;13.10;99.90;;;;;;4882995;29;20181;-91
2021/09/25 06:57:58;;;;;;;14.90;6.90;;;13.20;99.90;;;;;;4884205;29;20185;-91
2021/09/25 07:00:24;;;;;;;14.98;7.50;;;13.20;99.90;;;;;;4881358;29;20264;-93
2021/09/25 07:02:50;;;;;;;17.13;7.47;;;13.20;99.90;;;;;;4899552;29;20247;-92
2021/09/25 07:05:15;;;;;;;13.13;7.65;;;13.30;99.90;;;;;;4900503;29;20277;-92
2021/09/25 07:07:41;;;;;;;17.17;7.47;;;13.40;99.90;;;;;;4901666;29;20267;-94
2021/09/25 07:10:07;;;;;;;16.10;7.30;;;13.40;99.90;;;;;;4904771;29;20181;-93
2021/09/25 07:12:33;;;;;;;17.27;7.40;;;13.50;99.90;;;;;;4886728;29;20188;-95
2021/09/25 07:14:59;;;;;;;15.48;7.65;;;13.50;99.90;;;;;;4886262;29;20209;-94
2021/09/25 07:17:25;;;;;;;16.48;7.30;;;13.50;99.90;;;;;;4905751;29;20196;-95
2021/09/25 07:19:52;;;;;;;12.30;7.35;;;13.50;99.90;;;;;;4905773;29;20199;-96
2021/09/25 07:22:18;;;;;;;15.55;7.95;;;13.60;99.90;;;;;;4921928;29;20192;-96
2021/09/25 07:24:43;;;;;;;17.60;7.45;;;13.70;99.90;;;;;;4924608;29;20535;-94
2021/09/25 07:27:09;;;;;;;17.00;7.35;;;13.70;99.90;;;;;;4891720;29;20184;-95
2021/09/25 07:29:35;;;;;;;15.35;7.95;;;13.80;99.90;;;;;;4923240;29;20232;-96
2021/09/25 07:32:01;;;;;;;13.20;7.45;;;13.80;99.90;;;;;;4910321;29;20180;-94
2021/09/25 07:34:27;;;;;;;15.05;8.27;;;13.80;99.90;;;;;;4925644;29;20215;-94
2021/09/25 07:36:54;;;;;;;11.85;6.90;;;13.90;99.90;;;;;;4890477;29;20228;-92
2021/09/25 07:39:19;;;;;;;14.73;7.68;;;14.00;99.90;;;;;;4890120;29;20188;-92
2021/09/25 07:41:45;;;;;;;18.25;7.75;;;14.00;99.90;;;;;;4889074;29;20185;-93
2021/09/25 07:44:11;;;;;;;18.65;7.18;;;14.00;99.90;;;;;;4905410;29;20275;-96
2021/09/25 07:46:37;;;;;;;15.20;7.85;;;14.10;99.90;;;;;;4910903;29;20183;-91
2021/09/25 07:49:02;;;;;;;16.17;8.30;;;13.80;99.90;;;;;;4922690;29;20188;-92
2021/09/25 07:51:28;;;;;;;16.88;7.68;;;14.10;99.90;;;;;;4888695;29;20236;-93
2021/09/25 07:53:55;;;;;;;14.48;8.10;;;14.20;99.90;;;;;;4908993;29;20212;-95
2021/09/25 07:56:21;;;;;;;17.08;7.95;;;14.20;99.90;;;;;;4888562;29;20212;-92
2021/09/25 07:58:47;;;;;;;22.38;8.02;;;14.20;99.90;;;;;;4887912;29;20192;-92
2021/09/25 08:01:13;;;;;;;23.38;8.13;;;14.30;99.90;;;;;;4887583;29;20188;-93
2021/09/25 08:03:39;;;;;;;13.93;7.97;;;14.40;99.90;;;;;;4920284;29;20581;-93
2021/09/25 08:06:06;;;;;;;19.50;8.18;;;14.50;99.90;;;;;;4903476;29;20204;-92
2021/09/25 08:08:31;;;;;;;16.92;7.85;;;14.60;99.90;;;;;;4925043;29;20177;-94
2021/09/25 08:10:57;;;;;;;16.98;7.60;;;14.70;99.90;;;;;;4888610;29;20192;-95
2021/09/25 08:13:23;;;;;;;13.85;7.57;;;14.80;99.90;;;;;;4924032;29;20287;-95
2021/09/25 08:15:49;;;;;;;15.07;7.65;;;14.90;99.90;;;;;;4937877;29;20248;-96
2021/09/25 08:18:16;;;;;;;13.63;7.97;;;15.00;99.90;;;;;;4909329;29;20192;-94
2021/09/25 08:20:41;;;;;;;15.88;7.97;;;15.10;99.90;;;;;;4910472;29;20189;-94
2021/09/25 08:23:07;;;;;;;16.23;8.25;;;15.10;99.90;;;;;;4912840;29;20212;-93
2021/09/25 08:25:33;;;;;;;13.20;7.15;;;15.20;99.90;;;;;;4936786;29;20180;-92
2021/09/25 08:27:59;;;;;;;15.70;8.20;;;15.20;99.90;;;;;;4937884;29;20181;-94
2021/09/25 08:30:25;;;;;;;18.23;8.38;;;15.30;99.90;;;;;;4907572;29;20196;-93
2021/09/25 08:32:52;;;;;;;17.42;9.23;;;15.30;99.90;;;;;;4888493;29;20271;-93
2021/09/25 08:35:18;;;;;;;12.55;9.00;;;15.30;99.90;;;;;;4904109;29;20220;-94
2021/09/25 08:37:44;;;;;;;11.00;7.85;;;15.40;99.90;;;;;;4922198;29;20512;-93
2021/09/25 08:40:13;;;;;;;12.40;7.50;;;15.40;99.90;;;;;;4904148;29;20184;-94
2021/09/25 08:42:40;;;;;;;14.50;8.43;;;15.50;99.90;;;;;;4894132;29;20205;-93
2021/09/25 08:45:07;;;;;;;16.52;8.82;;;15.50;99.90;;;;;;4894335;29;20236;-94
2021/09/25 08:47:33;;;;;;;13.52;8.13;;;15.60;99.90;;;;;;4930210;29;20255;-94
2021/09/25 08:49:59;;;;;;;15.90;8.57;;;15.60;99.90;;;;;;4888805;29;20184;-92
2021/09/25 08:52:28;;;;;;;15.93;8.60;;;15.60;99.90;;;;;;4921721;29;20216;-95
2021/09/25 08:54:54;;;;;;;17.27;8.82;;;15.60;99.90;;;;;;4903090;29;20704;-96
2021/09/25 08:57:19;;;;;;;15.05;8.93;;;15.60;99.90;;;;;;4920772;29;20189;-92
2021/09/25 08:59:45;;;;;;;17.63;8.93;;;15.60;99.90;;;;;;4888422;29;20188;-94
2021/09/25 09:02:17;;;;;;;18.27;9.65;;;15.60;99.90;;;;;;4900942;29;20285;-93
2021/09/25 09:04:50;;;;;;;17.70;8.75;;;15.60;99.90;;;;;;4901040;29;20186;-96
2021/09/25 09:07:24;;;;;;;16.70;9.15;;;15.60;99.90;;;;;;4901499;29;20653;-91
2021/09/25 09:09:50;;;;;;;17.58;9.32;;;15.70;99.90;;;;;;4899763;29;20188;-92
2021/09/25 09:12:27;;;;;;;13.93;8.73;;;15.70;99.90;;;;;;4884423;29;20193;-93
2021/09/25 09:14:54;;;;;;;15.35;8.77;;;15.80;99.90;;;;;;4914483;29;20192;-94
2021/09/25 09:17:25;;;;;;;13.80;8.32;;;15.80;99.90;;;;;;4916975;29;20181;-94
2021/09/25 09:19:52;;;;;;;20.98;10.60;;;15.80;99.90;;;;;;4904221;29;20250;-93
2021/09/25 09:22:22;;;;;;;16.40;8.98;;;15.90;99.90;;;;;;4907712;29;20232;-94
2021/09/25 09:24:54;;;;;;;15.48;9.73;;;16.00;99.90;;;;;;4912006;29;20169;-93
2021/09/25 09:27:26;;;;;;;15.73;9.90;;;16.00;99.90;;;;;;4901953;29;20706;-94
2021/09/25 09:30:09;;;;;;;13.73;10.02;;;16.10;99.90;;;;;;4885669;29;20169;-94
2021/09/25 09:32:40;;;;;;;18.70;9.75;;;16.10;99.90;;;;;;4893511;29;20272;-93
2021/09/25 09:35:19;;;;;;;18.48;9.35;;;16.10;99.90;;;;;;4889122;29;20280;-94
2021/09/25 09:37:55;;;;;;;16.20;9.13;;;16.20;99.90;;;;;;4897097;29;20193;-94
2021/09/25 09:40:21;;;;;;;20.88;9.40;;;16.30;99.90;;;;;;4882935;29;20886;-93
2021/09/25 09:42:48;;;;;;;14.15;9.10;;;16.40;99.90;;;;;;4887780;29;20317;-94
2021/09/25 09:45:28;;;;;;;13.90;8.75;;;16.40;99.90;;;;;;4890728;29;20543;-96
2021/09/25 09:47:59;;;;;;;14.52;8.63;;;16.50;99.90;;;;;;4900977;29;20313;-96
2021/09/25 09:50:29;;;;;;;13.75;8.95;;;16.50;99.90;;;;;;4884726;29;20716;-94
2021/09/25 09:52:55;;;;;;;17.30;9.63;;;16.50;99.90;;;;;;4900896;29;20265;-94
2021/09/25 09:55:24;;;;;;;15.30;8.65;;;16.60;99.90;;;;;;4865164;29;20249;-96
2021/09/25 09:58:00;;;;;;;14.07;8.38;;;16.60;99.90;;;;;;4894677;29;20190;-95
2021/09/25 10:00:26;;;;;;;11.18;7.95;;;16.70;99.90;;;;;;4897542;29;20197;-90
2021/09/25 10:02:54;;;;;;;16.85;9.02;;;16.70;99.90;;;;;;4907877;29;20717;-94
2021/09/25 10:05:20;;;;;;;16.88;9.63;;;16.90;99.90;;;;;;4891925;29;20193;-94
2021/09/25 10:07:46;;;;;;;13.27;8.30;;;17.20;99.90;;;;;;4884201;29;20197;-93
2021/09/25 10:10:12;;;;;;;13.70;9.57;;;17.30;99.90;;;;;;4904488;29;20212;-94
2021/09/25 10:12:39;;;;;;;15.55;8.98;;;17.40;99.90;;;;;;4891030;29;20196;-94
2021/09/25 10:15:06;;;;;;;12.65;8.45;;;17.50;99.90;;;;;;4888496;29;20371;-94
2021/09/25 10:17:34;;;;;;;17.55;9.23;;;17.60;99.90;;;;;;4924619;23;20494;-95
2021/09/25 10:20:01;;;;;;;12.35;7.85;;;17.70;99.90;;;;;;4892108;29;20223;-94
2021/09/25 10:22:29;;;;;;;12.60;9.18;;;18.00;99.90;;;;;;4904705;29;20217;-94
2021/09/25 10:24:59;;;;;;;13.48;9.02;;;17.90;99.90;;;;;;4909488;29;20256;-95
2021/09/25 10:27:38;;;;;;;13.90;8.38;;;17.70;99.90;;;;;;4883766;29;20189;-96
2021/09/25 10:30:07;;;;;;;12.13;7.90;;;18.10;99.90;;;;;;4883233;29;20730;-95
2021/09/25 10:32:48;;;;;;;12.27;8.25;;;18.30;99.90;;;;;;4960547;23;20299;-95
2021/09/25 10:35:24;;;;;;;13.23;7.70;;;18.30;99.90;;;;;;4978799;23;20247;-96
2021/09/25 10:40:42;;;;;;;15.60;8.50;;;18.10;99.90;;;;;;5023146;23;20255;-95
2021/09/25 10:43:38;;;;;;;;;;;;;;;;;;;;;
2021/09/25 10:46:05;;;;;;;12.18;8.63;;;18.60;99.90;;;;;;4885702;29;20280;-90
2021/09/25 10:49:02;;;;;;;;;;;;;;;;;;;;;
2021/09/25 10:51:31;;;;;;;11.63;8.32;;;19.40;99.90;;;;;;4891990;29;20690;-95
2021/09/25 10:54:04;;;;;;;16.38;8.65;;;18.20;99.90;;;;;;4866555;29;20210;-92
2021/09/25 10:56:45;;;;;;;14.73;7.88;;;18.60;99.90;;;;;;4894311;29;20189;-96
2021/09/25 10:59:13;;;;;;;11.05;7.40;;;18.40;99.90;;;;;;4897437;29;20226;-92
2021/09/25 11:01:41;;;;;;;10.60;7.00;;;18.60;99.90;;;;;;4888643;29;20194;-93
2021/09/25 11:04:12;;;;;;;13.52;8.10;;;18.90;99.90;;;;;;4905229;29;20186;-95
2021/09/25 11:06:58;;;;;;;12.82;7.85;;;18.20;99.90;;;;;;4898568;29;20188;-94
2021/09/25 11:09:26;;;;;;;11.88;7.28;;;18.10;99.90;;;;;;4889750;29;20238;-92
2021/09/25 11:11:58;;;;;;;12.48;7.72;;;18.00;99.90;;;;;;4887329;29;20631;-92
2021/09/25 11:14:31;;;;;;;9.65;6.53;;;18.00;99.90;;;;;;4873957;29;20907;-96
2021/09/25 11:17:04;;;;;;;13.23;6.75;;;18.10;99.90;;;;;;4892590;29;20185;-96
2021/09/25 11:19:40;;;;;;;10.23;6.65;;;17.80;99.90;;;;;;4896463;29;20197;-93
2021/09/25 11:22:22;;;;;;;13.93;6.88;;;18.40;99.90;;;;;;4938449;23;20184;-93
2021/09/25 11:25:37;;;;;;;11.68;7.57;;;18.00;99.90;;;;;;4916147;29;20209;-94
2021/09/25 11:28:08;;;;;;;13.32;6.50;;;17.70;99.90;;;;;;4999068;23;20257;-94
2021/09/25 11:30:48;;;;;;;11.75;6.78;;;18.40;99.90;;;;;;4933338;29;20200;-95
2021/09/25 11:33:13;;;;;;;9.07;6.75;;;18.30;99.90;;;;;;4924091;29;20199;-94
2021/09/25 11:35:39;;;;;;;15.82;7.50;;;16.10;99.90;;;;;;4921440;29;20283;-94
2021/09/25 11:38:15;;;;;;;13.88;7.03;;;18.40;99.90;;;;;;4930897;29;20725;-95
2021/09/25 11:40:50;;;;;;;14.40;7.53;;;18.30;99.90;;;;;;4914604;29;20180;-96
2021/09/25 11:43:18;;;;;;;10.90;6.93;;;18.70;99.90;;;;;;4920702;29;20190;-94
2021/09/25 11:45:52;;;;;;;12.35;6.95;;;18.70;99.90;;;;;;4933376;29;20176;-94
2021/09/25 11:48:24;;;;;;;11.93;7.18;;;18.60;99.90;;;;;;4914385;29;20688;-95
2021/09/25 11:51:08;;;;;;;14.68;7.20;;;18.70;99.90;;;;;;4933324;29;20327;-96
2021/09/25 11:53:39;;;;;;;15.82;6.97;;;18.80;99.90;;;;;;4947311;29;20216;-94
2021/09/25 11:56:05;;;;;;;12.52;7.10;;;18.80;99.90;;;;;;4922714;29;20203;-96
2021/09/25 11:58:38;;;;;;;13.63;6.93;;;19.00;99.90;;;;;;4926356;29;20687;-95
2021/09/25 12:01:06;;;;;;;22.92;6.80;;;18.80;99.90;;;;;;5383157;23;20451;-95
2021/09/25 12:04:07;;;;;;;12.95;6.85;;;18.80;99.90;;;;;;5092451;23;20242;31
2021/09/25 12:06:35;;;;;;;11.63;7.43;;;19.30;99.90;;;;;;5453719;23;20241;-96
2021/09/25 12:09:01;;;;;;;10.05;7.65;;;18.80;99.90;;;;;;4923948;29;20343;-96
2021/09/25 12:11:31;;;;;;;9.02;6.90;;;18.70;99.90;;;;;;4921016;29;20666;-96
2021/09/25 12:13:57;;;;;;;11.38;6.80;;;18.80;99.90;;;;;;4903106;29;20765;-92
2021/09/25 12:16:23;;;;;;;13.65;7.65;;;18.60;99.90;;;;;;4909795;29;20193;-95
2021/09/25 12:18:52;;;;;;;12.30;7.63;;;18.70;99.90;;;;;;4914830;29;20195;-94
2021/09/25 12:21:23;;;;;;;11.60;7.85;;;18.60;99.90;;;;;;4920596;29;20188;-95
2021/09/25 12:24:06;;;;;;;9.07;6.78;;;18.70;99.90;;;;;;4926007;29;20208;-95
2021/09/25 12:26:34;;;;;;;9.90;7.10;;;18.60;99.90;;;;;;4922419;29;20200;-95
2021/09/25 12:29:02;;;;;;;9.55;6.82;;;18.60;99.90;;;;;;4914042;29;20203;-94
2021/09/25 12:31:35;;;;;;;8.32;6.47;;;18.60;99.90;;;;;;4924172;29;20177;-94
2021/09/25 12:34:04;;;;;;;11.65;7.63;;;18.60;99.90;;;;;;4914969;29;20432;-95
2021/09/25 12:36:35;;;;;;;15.13;7.65;;;18.60;99.90;;;;;;4920497;29;20256;-94
2021/09/25 12:39:06;;;;;;;13.45;8.00;;;18.70;99.90;;;;;;4937705;29;20180;-96
2021/09/25 12:41:34;;;;;;;16.23;7.93;;;17.80;99.90;;;;;;4921271;29;20192;-96
2021/09/25 12:44:03;;;;;;;16.95;6.47;;;18.70;99.90;;;;;;4917819;29;20552;-95
2021/09/25 12:46:56;;;;;;;8.07;5.88;;;18.80;99.90;;;;;;4925380;29;20180;-94